Time;durP1;ratioP1;P1;durP2;ratioP2;P2;SDS_P1;SDS_P2;PMS_P1;PMS_P2;Temp;Humidity;BMP_temperature;BMP_pressure;BME280_temperature;BME280_humidity;BME280_pressure;Samples;Min_cycle;Max_cycle;Signal;HPM_P1;HPM_P2
2022/03/07 00:01:55;;;;;;;40.23;22.90;;;-1.00;99.90;;;;;;2613311;47;20460;-80
2022/03/07 00:04:21;;;;;;;42.40;22.90;;;-1.00;99.90;;;;;;2613186;54;20155;-80
2022/03/07 00:06:48;;;;;;;41.43;22.60;;;-0.90;99.90;;;;;;2613591;54;20395;-81
2022/03/07 00:09:14;;;;;;;44.43;23.43;;;-1.00;99.90;;;;;;2614009;54;20423;-80
2022/03/07 00:11:41;;;;;;;36.47;24.20;;;-1.10;99.90;;;;;;2613936;54;20438;-79
2022/03/07 00:14:08;;;;;;;44.30;24.23;;;-1.10;99.90;;;;;;2612832;47;20444;-80
2022/03/07 00:16:34;;;;;;;43.23;23.27;;;-1.00;99.90;;;;;;2613274;47;20439;-81
2022/03/07 00:19:00;;;;;;;40.40;24.23;;;-1.00;99.90;;;;;;2612177;47;20539;-81
2022/03/07 00:21:26;;;;;;;44.70;22.27;;;-0.90;99.90;;;;;;2613342;54;20162;-81
2022/03/07 00:23:53;;;;;;;35.87;23.47;;;-0.90;99.90;;;;;;2613572;54;20415;-81
2022/03/07 00:26:19;;;;;;;36.90;23.07;;;-0.80;99.90;;;;;;2614814;39;21112;-80
2022/03/07 00:28:46;;;;;;;39.73;22.03;;;-0.80;99.90;;;;;;2613504;54;20414;-80
2022/03/07 00:31:13;;;;;;;34.23;22.10;;;-0.80;99.90;;;;;;2612706;47;20523;-81
2022/03/07 00:33:41;;;;;;;35.00;22.20;;;-0.80;99.90;;;;;;2614129;54;20543;-81
2022/03/07 00:36:08;;;;;;;33.47;20.73;;;-0.70;99.90;;;;;;2613608;54;20394;-80
2022/03/07 00:38:34;;;;;;;34.07;21.23;;;-0.70;99.90;;;;;;2614862;39;20879;-80
2022/03/07 00:41:03;;;;;;;33.17;22.20;;;-0.70;99.90;;;;;;2612644;54;20407;-80
2022/03/07 00:43:29;;;;;;;34.67;21.93;;;-0.80;99.90;;;;;;2613651;54;20917;-80
2022/03/07 00:45:55;;;;;;;33.53;19.60;;;-0.70;99.90;;;;;;2613758;54;20487;-81
2022/03/07 00:48:21;;;;;;;31.73;20.00;;;-0.60;99.90;;;;;;2614114;54;20965;-81
2022/03/07 00:50:49;;;;;;;25.93;19.00;;;-0.70;99.90;;;;;;2612588;46;20181;-81
2022/03/07 00:53:17;;;;;;;33.40;20.57;;;-0.50;99.90;;;;;;2613562;47;20419;-80
2022/03/07 00:55:43;;;;;;;32.77;19.93;;;-0.50;99.90;;;;;;2613667;54;20452;-81
2022/03/07 00:58:10;;;;;;;26.20;18.63;;;-0.50;99.90;;;;;;2614087;39;20841;-79
2022/03/07 01:00:37;;;;;;;28.33;18.50;;;-0.50;99.90;;;;;;2611756;47;20760;-80
2022/03/07 01:03:04;;;;;;;30.50;20.33;;;-0.50;99.50;;;;;;2614070;54;20460;-78
2022/03/07 01:05:30;;;;;;;27.33;17.93;;;-0.60;99.90;;;;;;2613669;47;20432;-81
2022/03/07 01:07:56;;;;;;;28.97;18.83;;;-0.50;99.90;;;;;;2614016;47;20411;-81
2022/03/07 01:10:24;;;;;;;31.00;19.50;;;-0.40;98.90;;;;;;2614670;54;21025;-80
2022/03/07 01:12:50;;;;;;;31.30;16.70;;;-0.40;98.90;;;;;;2613880;54;20418;-81
2022/03/07 01:15:17;;;;;;;23.50;16.80;;;-0.40;99.50;;;;;;2614088;54;20390;-81
2022/03/07 01:17:43;;;;;;;24.63;16.30;;;-0.50;99.70;;;;;;2612866;54;21027;-80
2022/03/07 01:20:10;;;;;;;24.07;16.47;;;-0.40;98.90;;;;;;2613489;54;20421;-80
2022/03/07 01:22:37;;;;;;;23.27;17.40;;;-0.40;98.50;;;;;;2613310;51;20462;-81
2022/03/07 01:25:04;;;;;;;23.53;15.63;;;-0.40;97.90;;;;;;2613877;46;20474;-81
2022/03/07 01:27:30;;;;;;;23.27;17.13;;;-0.30;97.00;;;;;;2612621;47;22153;-81
2022/03/07 01:29:56;;;;;;;26.17;16.70;;;-0.40;97.00;;;;;;2613462;52;20412;-81
2022/03/07 01:32:22;;;;;;;23.70;17.43;;;-0.40;96.90;;;;;;2613550;47;20507;-81
2022/03/07 01:34:48;;;;;;;32.27;17.27;;;-0.60;99.80;;;;;;2612857;47;20442;-80
2022/03/07 01:37:14;;;;;;;22.63;16.47;;;-0.60;99.90;;;;;;2612084;47;20427;-81
2022/03/07 01:39:41;;;;;;;24.07;16.67;;;-0.50;99.90;;;;;;2613076;47;20521;-81
2022/03/07 01:42:08;;;;;;;29.53;19.23;;;-0.60;99.90;;;;;;2614014;54;20414;-80
2022/03/07 01:44:34;;;;;;;31.13;19.57;;;-0.60;99.90;;;;;;2613269;54;20406;-82
2022/03/07 01:47:00;;;;;;;29.70;18.90;;;-0.70;99.90;;;;;;2613602;54;21001;-82
2022/03/07 01:49:27;;;;;;;26.10;17.63;;;-0.50;99.90;;;;;;2613140;54;20435;-79
2022/03/07 01:51:53;;;;;;;25.40;17.53;;;-0.50;99.90;;;;;;2613493;47;20418;-79
2022/03/07 01:54:23;;;;;;;32.00;19.47;;;-0.50;99.90;;;;;;2613774;54;20414;-80
2022/03/07 01:56:53;;;;;;;26.77;18.57;;;-0.50;99.90;;;;;;2613245;47;20408;-81
2022/03/07 01:59:24;;;;;;;26.10;16.40;;;-0.40;99.90;;;;;;2615109;39;20819;-81
2022/03/07 02:01:51;;;;;;;25.27;16.67;;;-0.40;99.90;;;;;;2614469;39;20777;-81
2022/03/07 02:04:17;;;;;;;24.77;16.27;;;-0.30;99.90;;;;;;2614445;46;20433;-82
2022/03/07 02:06:45;;;;;;;25.13;17.87;;;-0.20;99.90;;;;;;2612768;54;21139;-82
2022/03/07 02:09:12;;;;;;;27.03;18.30;;;-0.20;99.90;;;;;;2614596;51;20415;-81
2022/03/07 02:11:42;;;;;;;23.80;17.23;;;-0.10;99.90;;;;;;2613763;47;20414;-82
2022/03/07 02:14:25;;;;;;;25.07;16.80;;;-0.10;99.90;;;;;;2614229;54;20435;-82
2022/03/07 02:16:57;;;;;;;26.13;16.70;;;0.00;99.90;;;;;;2614047;47;20422;-82
2022/03/07 02:19:23;;;;;;;23.00;16.63;;;0.10;99.90;;;;;;2613478;47;20412;-81
2022/03/07 02:21:52;;;;;;;24.50;16.13;;;0.10;99.50;;;;;;2614315;47;20486;-81
2022/03/07 02:24:26;;;;;;;23.00;17.67;;;0.10;99.10;;;;;;2615273;47;20166;-81
2022/03/07 02:27:03;;;;;;;27.17;16.07;;;0.10;98.60;;;;;;2614539;39;20830;-82
2022/03/07 02:29:29;;;;;;;25.13;16.50;;;0.10;98.70;;;;;;2615310;47;20980;-82
2022/03/07 02:32:00;;;;;;;27.07;14.70;;;0.30;96.50;;;;;;2613930;54;20499;-81
2022/03/07 02:34:30;;;;;;;25.43;17.53;;;0.30;96.60;;;;;;2614376;47;20405;-82
2022/03/07 02:36:56;;;;;;;22.37;15.73;;;0.20;96.80;;;;;;2615059;54;20956;-82
2022/03/07 02:39:25;;;;;;;17.57;12.83;;;0.30;96.30;;;;;;2614317;47;20422;-82
2022/03/07 02:41:51;;;;;;;21.70;15.33;;;0.40;94.50;;;;;;2613284;47;21021;-82
2022/03/07 02:44:18;;;;;;;21.70;16.10;;;0.30;95.00;;;;;;2614892;54;20415;-82
2022/03/07 02:46:44;;;;;;;27.20;18.43;;;0.30;95.90;;;;;;2615191;39;20837;-82
2022/03/07 02:49:10;;;;;;;26.53;17.43;;;0.20;96.40;;;;;;2613012;47;20530;-82
2022/03/07 02:51:36;;;;;;;24.50;15.63;;;0.30;96.30;;;;;;2614963;54;20199;-82
2022/03/07 02:54:02;;;;;;;25.70;17.57;;;0.20;96.20;;;;;;2614644;54;20490;-82
2022/03/07 02:56:28;;;;;;;21.70;16.23;;;0.30;95.90;;;;;;2615676;54;20463;-81
2022/03/07 02:58:54;;;;;;;21.13;15.67;;;0.30;96.50;;;;;;2615484;54;20432;-82
2022/03/07 03:01:20;;;;;;;23.80;16.57;;;0.40;96.10;;;;;;2615262;47;20530;-81
2022/03/07 03:03:46;;;;;;;25.10;15.80;;;0.40;95.90;;;;;;2614769;47;20171;-82
2022/03/07 03:06:12;;;;;;;21.17;15.50;;;0.40;95.20;;;;;;2614791;54;20242;-82
2022/03/07 03:08:38;;;;;;;22.30;15.60;;;0.70;95.00;;;;;;2615419;47;20499;-82
2022/03/07 03:11:05;;;;;;;19.37;13.90;;;0.50;94.20;;;;;;2616072;54;20439;-82
2022/03/07 03:13:31;;;;;;;23.47;15.23;;;0.60;93.00;;;;;;2615705;54;20520;-83
2022/03/07 03:15:57;;;;;;;29.43;15.73;;;0.70;92.20;;;;;;2615307;54;20402;-83
2022/03/07 03:18:23;;;;;;;28.03;17.63;;;0.60;92.80;;;;;;2614468;47;20879;-82
2022/03/07 03:20:51;;;;;;;19.53;16.23;;;0.60;93.20;;;;;;2615980;39;20799;-82
2022/03/07 03:23:19;;;;;;;19.70;15.30;;;0.70;92.80;;;;;;2615167;46;20451;-82
2022/03/07 03:25:46;;;;;;;24.70;15.70;;;0.70;92.00;;;;;;2614106;54;20418;-82
2022/03/07 03:28:12;;;;;;;20.00;14.30;;;0.70;91.70;;;;;;2613908;46;20458;-81
2022/03/07 03:30:39;;;;;;;22.90;14.97;;;0.80;90.90;;;;;;2615193;54;20423;-82
2022/03/07 03:33:05;;;;;;;18.73;13.00;;;0.80;90.20;;;;;;2614550;47;20419;-82
2022/03/07 03:35:35;;;;;;;18.43;15.30;;;0.80;90.20;;;;;;2615079;54;20415;-82
2022/03/07 03:38:03;;;;;;;19.50;14.13;;;0.90;87.60;;;;;;2614941;54;20395;-82
2022/03/07 03:40:29;;;;;;;18.93;14.17;;;1.00;81.70;;;;;;2614464;47;20440;-82
2022/03/07 03:42:54;;;;;;;23.30;15.63;;;0.90;82.30;;;;;;2614907;54;20427;-80
2022/03/07 03:45:20;;;;;;;17.87;14.90;;;1.00;79.70;;;;;;2614130;47;20527;-83
2022/03/07 03:47:46;;;;;;;21.07;14.27;;;1.10;78.50;;;;;;2614996;46;20205;-81
2022/03/07 03:50:14;;;;;;;16.40;13.90;;;1.10;77.80;;;;;;2614435;54;20180;-82
2022/03/07 03:52:41;;;;;;;22.40;16.20;;;1.00;77.70;;;;;;2615352;39;20682;-82
2022/03/07 03:55:08;;;;;;;20.43;14.10;;;1.00;77.70;;;;;;2614945;54;20394;-83
2022/03/07 03:57:33;;;;;;;20.40;14.70;;;0.90;78.70;;;;;;2612455;39;21315;-82
2022/03/07 03:59:59;;;;;;;21.53;15.67;;;1.00;79.50;;;;;;2614195;54;20412;-83
2022/03/07 04:02:25;;;;;;;21.70;14.60;;;1.00;80.10;;;;;;2614534;54;20247;-82
2022/03/07 04:04:51;;;;;;;21.40;15.17;;;1.00;78.20;;;;;;2614856;47;20412;-82
2022/03/07 04:07:17;;;;;;;17.20;12.77;;;0.90;79.80;;;;;;2615871;54;20158;-82
2022/03/07 04:09:42;;;;;;;23.30;15.00;;;1.00;80.30;;;;;;2613335;54;20911;-82
2022/03/07 04:12:09;;;;;;;22.83;13.40;;;1.00;79.20;;;;;;2613815;47;20422;-82
2022/03/07 04:14:35;;;;;;;20.33;13.93;;;1.00;79.70;;;;;;2613341;54;20159;-82
2022/03/07 04:17:01;;;;;;;20.57;13.87;;;0.90;80.40;;;;;;2614011;47;21225;-83
2022/03/07 04:19:28;;;;;;;22.57;15.20;;;0.80;82.30;;;;;;2613458;47;20435;-82
2022/03/07 04:21:53;;;;;;;21.27;15.57;;;0.80;84.40;;;;;;2614689;47;20445;-82
2022/03/07 04:24:20;;;;;;;22.10;13.80;;;1.00;81.70;;;;;;2614736;54;20399;-82
2022/03/07 04:26:46;;;;;;;25.90;15.97;;;1.00;80.50;;;;;;2613784;47;20167;-81
2022/03/07 04:29:12;;;;;;;22.37;15.20;;;0.80;83.50;;;;;;2614281;54;20434;-81
2022/03/07 04:31:43;;;;;;;20.37;14.60;;;0.90;84.20;;;;;;2614104;54;20898;-82
2022/03/07 04:34:12;;;;;;;21.13;13.87;;;0.80;82.30;;;;;;2614332;47;20434;-82
2022/03/07 04:36:39;;;;;;;18.70;13.67;;;0.80;83.70;;;;;;2614067;47;20427;-82
2022/03/07 04:39:06;;;;;;;19.03;13.93;;;0.80;85.00;;;;;;2611844;54;20454;-82
2022/03/07 04:41:33;;;;;;;18.87;14.10;;;0.90;82.40;;;;;;2614999;54;20419;-82
2022/03/07 04:43:59;;;;;;;19.07;13.70;;;0.90;81.50;;;;;;2614847;54;21480;-82
2022/03/07 04:46:25;;;;;;;19.80;12.80;;;1.10;77.80;;;;;;2614913;47;20549;-81
2022/03/07 04:48:51;;;;;;;20.20;14.27;;;1.00;77.10;;;;;;2614546;54;20407;-82
2022/03/07 04:51:18;;;;;;;22.93;14.77;;;1.00;77.70;;;;;;2615188;54;20426;-81
2022/03/07 04:53:44;;;;;;;16.40;13.17;;;1.00;80.40;;;;;;2611846;47;20170;-83
2022/03/07 04:56:10;;;;;;;17.87;13.43;;;1.00;77.20;;;;;;2613991;54;20432;-83
2022/03/07 04:58:37;;;;;;;17.23;12.67;;;1.00;78.50;;;;;;2614691;54;20391;-82
2022/03/07 05:01:03;;;;;;;19.87;13.27;;;1.10;74.10;;;;;;2613479;54;20640;-82
2022/03/07 05:03:29;;;;;;;17.90;14.20;;;1.10;72.50;;;;;;2613871;54;20431;-81
2022/03/07 05:05:55;;;;;;;20.57;13.30;;;1.00;73.90;;;;;;2613915;47;20411;-82
2022/03/07 05:08:21;;;;;;;20.10;14.40;;;1.00;75.00;;;;;;2615046;54;20410;-82
2022/03/07 05:10:47;;;;;;;39.83;13.13;;;0.90;76.50;;;;;;2614019;54;20916;-82
2022/03/07 05:13:13;;;;;;;20.77;15.90;;;1.10;76.70;;;;;;2616102;39;20526;-83
2022/03/07 05:15:39;;;;;;;19.33;14.57;;;1.00;75.60;;;;;;2613403;54;20174;-83
2022/03/07 05:18:05;;;;;;;18.17;14.23;;;1.00;76.00;;;;;;2615381;54;20478;-82
2022/03/07 05:20:31;;;;;;;22.30;14.87;;;1.00;77.30;;;;;;2613819;54;20387;-83
2022/03/07 05:22:58;;;;;;;19.60;13.93;;;1.10;74.50;;;;;;2615065;54;20486;-82
2022/03/07 05:25:24;;;;;;;18.47;15.00;;;1.00;74.50;;;;;;2613185;54;20442;-82
2022/03/07 05:27:51;;;;;;;25.90;15.43;;;1.10;74.50;;;;;;2613864;47;20468;-83
2022/03/07 05:30:22;;;;;;;20.10;13.93;;;1.10;70.10;;;;;;2613981;47;20413;-82
2022/03/07 05:32:50;;;;;;;17.90;14.00;;;1.10;70.80;;;;;;2613961;54;20399;-83
2022/03/07 05:35:17;;;;;;;18.13;13.93;;;1.10;70.30;;;;;;2615192;54;20440;-82
2022/03/07 05:37:43;;;;;;;19.53;13.10;;;1.00;69.90;;;;;;2615928;54;20458;-84
2022/03/07 05:40:11;;;;;;;18.97;14.10;;;1.10;66.20;;;;;;2614668;54;20371;-83
2022/03/07 05:42:38;;;;;;;17.60;13.20;;;0.80;75.60;;;;;;2615530;54;20398;-82
2022/03/07 05:45:06;;;;;;;18.80;14.30;;;0.50;79.20;;;;;;2615567;39;20820;-82
2022/03/07 05:47:33;;;;;;;16.63;13.10;;;0.70;78.40;;;;;;2615102;54;20435;-83
2022/03/07 05:49:59;;;;;;;19.83;13.30;;;0.80;78.80;;;;;;2614633;31;20896;-82
2022/03/07 05:52:25;;;;;;;23.33;14.90;;;0.80;78.30;;;;;;2613657;47;20919;-81
2022/03/07 05:54:51;;;;;;;18.60;13.53;;;0.80;79.40;;;;;;2614952;54;20421;-83
2022/03/07 05:57:17;;;;;;;19.90;13.70;;;0.90;79.40;;;;;;2614711;54;20179;-82
2022/03/07 05:59:42;;;;;;;18.47;14.30;;;1.00;80.10;;;;;;2615425;47;20563;-83
2022/03/07 06:02:08;;;;;;;39.87;15.70;;;1.20;77.00;;;;;;2615457;54;20250;-82
2022/03/07 06:04:34;;;;;;;21.73;14.60;;;1.30;71.80;;;;;;2615035;47;20467;-82
2022/03/07 06:07:00;;;;;;;21.43;13.83;;;1.20;72.00;;;;;;2615374;47;20427;-83
2022/03/07 06:09:26;;;;;;;18.23;14.03;;;;;;;;;;2615794;46;20450;-83
2022/03/07 06:11:52;;;;;;;18.53;14.70;;;1.30;69.10;;;;;;2614944;54;20395;-81
2022/03/07 06:14:18;;;;;;;21.63;14.73;;;1.30;67.60;;;;;;2615169;39;20837;-84
2022/03/07 06:16:44;;;;;;;18.17;12.87;;;1.30;69.60;;;;;;2613766;51;20435;-77
2022/03/07 06:19:10;;;;;;;21.40;14.87;;;1.20;70.20;;;;;;2615008;39;20567;-82
2022/03/07 06:21:36;;;;;;;24.00;15.00;;;1.10;79.20;;;;;;2613343;54;20158;-80
2022/03/07 06:24:02;;;;;;;21.03;16.30;;;1.10;75.70;;;;;;2609858;54;20402;-80
2022/03/07 06:26:28;;;;;;;24.07;17.67;;;1.30;72.10;;;;;;2613816;54;20163;-80
2022/03/07 06:28:54;;;;;;;19.60;14.10;;;1.30;70.90;;;;;;2612551;54;20872;-80
2022/03/07 06:31:19;;;;;;;27.80;15.80;;;1.40;69.00;;;;;;2613219;54;20432;-82
2022/03/07 06:33:45;;;;;;;25.47;15.90;;;1.50;67.20;;;;;;2614669;39;20562;-81
2022/03/07 06:36:11;;;;;;;26.30;18.00;;;1.40;67.20;;;;;;2611757;31;20823;-80
2022/03/07 06:38:39;;;;;;;29.00;15.90;;;1.30;69.20;;;;;;2612832;54;20411;-80
2022/03/07 06:41:05;;;;;;;25.37;16.60;;;1.30;74.80;;;;;;2613331;54;20824;-81
2022/03/07 06:43:32;;;;;;;22.00;16.13;;;1.40;74.40;;;;;;2612930;54;20401;-81
2022/03/07 06:45:58;;;;;;;17.37;14.70;;;1.40;73.90;;;;;;2613450;47;20424;-81
2022/03/07 06:48:24;;;;;;;24.20;16.90;;;1.50;72.70;;;;;;2612106;39;20984;-81
2022/03/07 06:50:50;;;;;;;28.90;16.10;;;1.60;71.20;;;;;;2613811;54;20447;-82
2022/03/07 06:53:16;;;;;;;24.13;15.70;;;1.70;70.00;;;;;;2611071;39;20597;-82
2022/03/07 06:55:43;;;;;;;22.00;16.20;;;1.70;70.00;;;;;;2612074;54;20415;-81
2022/03/07 06:58:09;;;;;;;15.33;13.77;;;1.70;69.50;;;;;;2629513;36;20558;-81
2022/03/07 07:00:35;;;;;;;18.70;14.47;;;1.90;66.10;;;;;;2611839;47;20531;-82
2022/03/07 07:03:02;;;;;;;19.63;15.80;;;1.90;64.00;;;;;;2613435;54;20209;-82
2022/03/07 07:05:29;;;;;;;22.33;14.87;;;1.80;63.00;;;;;;2612512;54;20407;-81
2022/03/07 07:07:55;;;;;;;20.57;15.93;;;1.90;62.80;;;;;;2612230;54;20420;-82
2022/03/07 07:10:21;;;;;;;18.87;13.10;;;1.90;60.40;;;;;;2611755;46;20426;-79
2022/03/07 07:12:49;;;;;;;22.03;15.27;;;2.10;57.10;;;;;;2612382;54;20236;-80
2022/03/07 07:15:15;;;;;;;29.20;17.33;;;2.20;54.00;;;;;;2610954;54;20431;-81
2022/03/07 07:17:42;;;;;;;22.83;16.43;;;2.20;53.70;;;;;;2613124;47;20911;-81
2022/03/07 07:20:10;;;;;;;21.80;15.90;;;2.30;53.40;;;;;;2613165;47;20411;-82
2022/03/07 07:22:37;;;;;;;19.67;14.83;;;2.50;51.70;;;;;;2613134;47;21083;-82
2022/03/07 07:25:06;;;;;;;20.17;14.37;;;2.60;48.60;;;;;;2612586;54;21030;-80
2022/03/07 07:27:32;;;;;;;19.47;14.47;;;2.60;47.80;;;;;;2612430;54;20411;-82
2022/03/07 07:29:58;;;;;;;20.43;15.87;;;2.60;47.20;;;;;;2613926;54;20911;-82
2022/03/07 07:32:25;;;;;;;17.87;14.70;;;2.80;45.80;;;;;;2613056;51;20449;-82
2022/03/07 07:34:50;;;;;;;25.30;16.00;;;2.90;45.40;;;;;;2614321;54;20442;-82
2022/03/07 07:37:17;;;;;;;20.77;14.53;;;3.00;41.00;;;;;;2611826;47;20922;-83
2022/03/07 07:39:43;;;;;;;18.73;13.80;;;3.40;38.70;;;;;;2612838;46;20266;-83
2022/03/07 07:42:09;;;;;;;17.07;13.80;;;3.00;37.80;;;;;;2612861;39;20925;-83
2022/03/07 07:44:38;;;;;;;19.30;15.40;;;3.10;37.40;;;;;;2611759;47;20463;-82
2022/03/07 07:47:04;;;;;;;18.83;14.00;;;3.10;36.50;;;;;;2612527;47;21022;-80
2022/03/07 07:49:31;;;;;;;25.40;15.53;;;3.30;37.90;;;;;;2610979;54;20431;-82
2022/03/07 07:51:57;;;;;;;22.10;15.10;;;3.30;35.00;;;;;;2612209;54;20677;-82
2022/03/07 07:54:23;;;;;;;21.47;14.07;;;3.60;31.20;;;;;;2611942;54;20420;-84
2022/03/07 07:56:49;;;;;;;19.17;14.00;;;3.90;28.80;;;;;;2613192;54;20415;-82
2022/03/07 07:59:15;;;;;;;13.60;12.23;;;4.40;23.70;;;;;;2612977;47;20410;-84
2022/03/07 08:01:41;;;;;;;13.97;11.40;;;4.70;21.00;;;;;;2612963;39;20518;-83
2022/03/07 08:04:08;;;;;;;15.13;12.10;;;5.20;16.60;;;;;;2613240;54;20404;-82
2022/03/07 08:06:33;;;;;;;18.97;12.33;;;5.70;12.10;;;;;;2613529;54;20284;-83
2022/03/07 08:09:01;;;;;;;20.87;13.30;;;6.20;8.80;;;;;;2612763;54;20456;-83
2022/03/07 08:11:27;;;;;;;14.40;12.93;;;6.80;6.30;;;;;;2612774;46;20423;-82
2022/03/07 08:13:53;;;;;;;13.37;11.63;;;7.40;2.40;;;;;;2612230;54;20445;-81
2022/03/07 08:16:20;;;;;;;14.83;11.50;;;8.10;1.00;;;;;;2613779;54;20200;-83
2022/03/07 08:18:46;;;;;;;14.00;11.30;;;8.20;1.00;;;;;;2613078;47;20183;-83
2022/03/07 08:21:12;;;;;;;11.13;10.13;;;8.00;1.00;;;;;;2613391;54;20433;-82
2022/03/07 08:23:38;;;;;;;11.40;10.40;;;8.40;1.00;;;;;;2612559;51;20426;-81
2022/03/07 08:26:05;;;;;;;10.70;8.23;;;8.80;1.00;;;;;;2612127;54;20480;-80
2022/03/07 08:28:32;;;;;;;9.20;8.30;;;9.00;1.00;;;;;;2612923;50;20443;-83
2022/03/07 08:30:58;;;;;;;10.73;8.47;;;8.40;1.00;;;;;;2613891;39;20817;-82
2022/03/07 08:33:25;;;;;;;9.70;8.20;;;8.30;1.00;;;;;;2613864;54;20428;-82
2022/03/07 08:35:54;;;;;;;8.73;8.03;;;7.90;1.00;;;;;;2613680;39;20567;-82
2022/03/07 08:38:20;;;;;;;12.63;9.10;;;7.90;1.00;;;;;;2612723;54;20413;-83
2022/03/07 08:40:46;;;;;;;8.77;7.97;;;8.10;1.00;;;;;;2613178;54;20460;-83
2022/03/07 08:43:12;;;;;;;8.33;7.73;;;8.60;1.00;;;;;;2611707;54;20159;-81
2022/03/07 08:45:39;;;;;;;8.37;7.67;;;8.20;1.00;;;;;;2613695;39;20817;-84
2022/03/07 08:48:05;;;;;;;8.27;7.67;;;7.90;1.00;;;;;;2613991;54;20292;-81
2022/03/07 08:50:30;;;;;;;7.33;6.70;;;7.80;1.00;;;;;;2614334;54;20427;-83
2022/03/07 08:52:56;;;;;;;8.37;7.00;;;7.80;1.00;;;;;;2615399;54;20244;-84
2022/03/07 08:55:22;;;;;;;8.10;7.10;;;7.30;1.00;;;;;;2615268;54;20203;-84
2022/03/07 08:57:48;;;;;;;7.50;7.00;;;7.50;1.00;;;;;;2614595;47;20424;-83
2022/03/07 09:00:16;;;;;;;9.17;8.30;;;8.10;1.00;;;;;;2614456;54;20176;-82
2022/03/07 09:02:43;;;;;;;11.47;7.50;;;8.20;8.40;;;;;;2614006;51;20395;-83
2022/03/07 09:05:09;;;;;;;7.50;6.90;;;8.80;1.00;;;;;;2615228;54;20512;-83
2022/03/07 09:07:36;;;;;;;8.07;7.27;;;8.80;1.00;;;;;;2616321;31;21091;-83
2022/03/07 09:10:02;;;;;;;7.87;7.20;;;9.30;1.00;;;;;;2615828;47;20886;-84
2022/03/07 09:12:29;;;;;;;7.20;6.57;;;9.10;1.00;;;;;;2615391;54;20420;-82
2022/03/07 09:15:01;;;;;;;7.13;6.63;;;8.80;1.00;;;;;;2615478;47;20571;-83
2022/03/07 09:17:27;;;;;;;6.80;6.20;;;8.50;1.00;;;;;;2615237;54;20976;-83
2022/03/07 09:19:58;;;;;;;7.23;6.73;;;8.70;1.00;;;;;;2614877;54;20397;-84
2022/03/07 09:22:27;;;;;;;7.23;6.73;;;8.90;1.00;;;;;;2614785;54;20564;-82
2022/03/07 09:24:55;;;;;;;7.80;6.87;;;9.50;1.00;;;;;;2616119;54;20936;-84
2022/03/07 09:27:20;;;;;;;8.00;7.30;;;9.70;1.00;;;;;;2613776;47;21009;-83
2022/03/07 09:29:47;;;;;;;6.87;6.37;;;9.60;1.00;;;;;;2613969;54;20423;-82
2022/03/07 09:32:13;;;;;;;7.00;6.50;;;9.70;1.00;;;;;;2613764;49;20689;-84
2022/03/07 09:34:39;;;;;;;8.33;6.93;;;8.80;1.00;;;;;;2615481;54;20503;-81
2022/03/07 09:37:06;;;;;;;7.70;7.20;;;8.90;1.00;;;;;;2614975;54;20392;-80
2022/03/07 09:39:34;;;;;;;7.33;6.90;;;9.20;1.00;;;;;;2613944;54;20414;-82
2022/03/07 09:42:23;;;;;;;7.07;6.47;;;9.10;1.00;;;;;;2614725;39;20526;-83
2022/03/07 09:44:51;;;;;;;7.27;6.67;;;9.00;1.00;;;;;;2613923;54;20388;-83
2022/03/07 09:47:19;;;;;;;8.33;7.83;;;9.10;1.00;;;;;;2614453;47;20457;-84
2022/03/07 09:49:46;;;;;;;6.90;6.47;;;9.40;1.00;;;;;;2613770;54;20417;-82
2022/03/07 09:52:12;;;;;;;8.60;7.80;;;9.70;1.00;;;;;;2613795;47;20974;-82
2022/03/07 09:54:38;;;;;;;6.97;6.43;;;9.60;1.00;;;;;;2614349;47;21168;-82
2022/03/07 09:57:04;;;;;;;7.20;6.70;;;9.50;1.00;;;;;;2614003;54;20269;-82
2022/03/07 09:59:32;;;;;;;7.33;6.93;;;9.70;1.00;;;;;;2613002;46;20345;-84
2022/03/07 10:02:04;;;;;;;6.30;5.73;;;10.00;1.00;;;;;;2614350;54;20436;-84
2022/03/07 10:04:38;;;;;;;5.83;5.43;;;10.20;1.00;;;;;;2613754;54;20398;-84
2022/03/07 10:07:04;;;;;;;7.30;6.80;;;10.30;1.00;;;;;;2613211;54;20470;-83
2022/03/07 10:09:30;;;;;;;7.20;6.80;;;10.40;1.00;;;;;;2612472;39;20793;-82
2022/03/07 10:12:05;;;;;;;6.57;6.17;;;10.30;1.00;;;;;;2613145;54;20410;-84
2022/03/07 10:14:45;;;;;;;6.60;6.10;;;10.20;1.00;;;;;;2613117;54;20224;-83
2022/03/07 10:17:31;;;;;;;8.50;7.90;;;10.80;1.00;;;;;;2614152;54;20582;-80
2022/03/07 10:20:04;;;;;;;7.97;7.47;;;10.80;1.00;;;;;;2613007;46;20568;-81
2022/03/07 10:22:30;;;;;;;7.33;6.67;;;10.80;1.00;;;;;;2615286;54;20410;-82
2022/03/07 10:25:04;;;;;;;7.20;6.70;;;10.80;1.00;;;;;;2613647;54;20396;-82
2022/03/07 10:27:34;;;;;;;8.20;7.53;;;10.70;1.00;;;;;;2614126;54;20149;-82
2022/03/07 10:30:00;;;;;;;7.63;7.20;;;10.50;1.00;;;;;;2613993;51;20418;-84
2022/03/07 10:32:26;;;;;;;7.87;7.30;;;10.10;1.00;;;;;;2613574;54;20407;-82
2022/03/07 10:34:53;;;;;;;9.23;8.23;;;10.20;1.00;;;;;;2613661;39;20955;-81
2022/03/07 10:37:19;;;;;;;8.13;7.53;;;;;;;;;;2614861;31;20871;-81
2022/03/07 10:39:52;;;;;;;8.70;8.17;;;9.90;1.00;;;;;;2612900;54;21119;-81
2022/03/07 10:42:19;;;;;;;7.40;6.80;;;9.90;1.00;;;;;;2612369;54;20395;-80
2022/03/07 10:44:48;;;;;;;8.53;8.00;;;10.00;1.00;;;;;;2616761;47;20427;-80
2022/03/07 10:47:16;;;;;;;8.13;7.63;;;10.20;1.00;;;;;;2613776;51;20588;-80
2022/03/07 10:49:49;;;;;;;8.63;7.97;;;10.30;1.00;;;;;;2614490;31;20896;-81
2022/03/07 10:52:15;;;;;;;9.60;7.50;;;10.60;1.00;;;;;;2613503;54;20411;-80
2022/03/07 10:54:42;;;;;;;7.97;7.47;;;10.70;1.00;;;;;;2612427;47;20519;-81
2022/03/07 10:57:09;;;;;;;9.17;8.47;;;10.90;1.00;;;;;;2611711;54;20430;-80
2022/03/07 10:59:36;;;;;;;8.00;7.40;;;10.60;1.00;;;;;;2613733;54;20382;-81
2022/03/07 11:02:06;;;;;;;9.90;9.20;;;10.70;1.00;;;;;;2615023;31;20878;-81
2022/03/07 11:04:33;;;;;;;9.40;8.80;;;10.70;1.00;;;;;;2613818;47;20426;-80
2022/03/07 11:06:59;;;;;;;9.70;9.00;;;10.90;1.00;;;;;;2614030;54;20410;-81
2022/03/07 11:09:27;;;;;;;9.97;9.37;;;11.10;1.00;;;;;;2611483;47;20419;-80
2022/03/07 11:11:54;;;;;;;10.03;9.43;;;11.20;1.00;;;;;;2612263;54;20426;-81
2022/03/07 11:14:22;;;;;;;9.37;8.77;;;11.60;1.00;;;;;;2612616;54;20503;-81
2022/03/07 11:16:51;;;;;;;10.50;9.90;;;11.10;1.00;;;;;;2614588;47;20418;-81
2022/03/07 11:19:20;;;;;;;9.67;9.07;;;11.40;1.00;;;;;;2613563;47;20415;-81
2022/03/07 11:21:51;;;;;;;9.97;9.37;;;11.50;1.00;;;;;;2613402;54;20392;-81
2022/03/07 11:24:22;;;;;;;7.90;7.50;;;11.70;1.00;;;;;;2612207;47;20426;-80
2022/03/07 11:26:49;;;;;;;8.50;8.00;;;11.60;1.00;;;;;;2612618;51;20416;-81
2022/03/07 11:29:17;;;;;;;9.67;8.97;;;11.50;1.00;;;;;;2612638;54;20493;-81
2022/03/07 11:31:44;;;;;;;11.13;10.33;;;11.50;1.00;;;;;;2612005;54;20429;-80
2022/03/07 11:34:12;;;;;;;10.17;9.57;;;11.80;1.00;;;;;;2613449;39;20997;-81
2022/03/07 11:36:49;;;;;;;10.00;9.20;;;11.80;1.00;;;;;;2613512;54;20423;-81
2022/03/07 11:39:36;;;;;;;10.47;9.67;;;11.90;1.00;;;;;;2612562;54;20403;-80
2022/03/07 11:42:13;;;;;;;10.03;9.43;;;12.60;1.00;;;;;;2612238;47;20424;-81
2022/03/07 11:44:42;;;;;;;10.53;9.83;;;12.60;1.00;;;;;;2613475;47;20408;-80
2022/03/07 11:47:16;;;;;;;10.90;10.20;;;12.70;1.00;;;;;;2612820;54;21138;-79
2022/03/07 11:49:43;;;;;;;9.93;9.23;;;12.60;1.00;;;;;;2612914;54;20407;-81
2022/03/07 11:52:17;;;;;;;10.60;9.63;;;12.60;1.00;;;;;;2611314;47;20542;-80
2022/03/07 11:54:54;;;;;;;11.00;10.20;;;12.40;1.00;;;;;;2612690;47;20944;-80
2022/03/07 11:57:36;;;;;;;9.90;9.30;;;12.50;1.00;;;;;;2613149;47;20407;-80
2022/03/07 12:00:12;;;;;;;10.10;9.40;;;12.50;1.00;;;;;;2613442;54;20423;-83
2022/03/07 12:02:43;;;;;;;9.57;8.87;;;12.60;1.00;;;;;;2627136;36;20440;-80
2022/03/07 12:05:31;;;;;;;9.20;8.50;;;12.40;1.00;;;;;;2610066;47;20508;-80
2022/03/07 12:08:26;;;;;;;10.70;10.00;;;12.60;1.00;;;;;;2611419;47;20419;-81
2022/03/07 12:10:53;;;;;;;9.83;9.13;;;13.00;1.00;;;;;;2611603;54;20431;-81
2022/03/07 12:13:20;;;;;;;9.67;8.97;;;13.00;1.00;;;;;;2611819;54;20535;-79
2022/03/07 12:15:55;;;;;;;8.93;8.33;;;13.20;1.00;;;;;;2611907;39;20526;-80
2022/03/07 12:18:23;;;;;;;9.73;9.03;;;;;;;;;;2612248;54;20414;-80
2022/03/07 12:21:00;;;;;;;10.60;9.83;;;12.70;1.00;;;;;;2612085;54;20411;-82
2022/03/07 12:23:29;;;;;;;9.27;8.63;;;12.80;1.00;;;;;;2612658;31;20921;-81
2022/03/07 12:26:01;;;;;;;10.20;9.50;;;12.70;1.00;;;;;;2613014;54;20424;-80
2022/03/07 12:28:32;;;;;;;10.23;9.50;;;12.70;1.00;;;;;;2614172;54;20440;-80
2022/03/07 12:30:59;;;;;;;10.57;9.80;;;12.50;1.00;;;;;;2614170;54;20423;-81
2022/03/07 12:33:25;;;;;;;10.33;9.57;;;12.60;1.00;;;;;;2614841;54;20456;-81
2022/03/07 12:36:08;;;;;;;10.97;10.27;;;12.70;1.00;;;;;;2614037;47;20419;-81
2022/03/07 12:38:48;;;;;;;10.80;9.80;;;13.00;1.00;;;;;;2613944;39;20894;-82
2022/03/07 12:41:14;;;;;;;9.57;8.97;;;;;;;;;;2613875;39;20799;-83
2022/03/07 12:43:43;;;;;;;10.70;9.70;;;13.20;1.00;;;;;;2613294;54;20547;-81
2022/03/07 12:46:12;;;;;;;11.03;10.00;;;13.10;1.00;;;;;;2613561;54;20523;-80